Jerseyville, IL

5:32 AM CDT on April 26, 2017 (GMT -0500)
North Jerseyville | | Change Station
Active Advisory: Flood Warning

Elev 558 ft 39.15 °N, 90.32 °W | Updated 5 seconds ago

Overcast
Overcast
66.2 °F
Feels Like 66.2 °F
N
10.3
Wind Variable Wind from WSW
Gusts 12.3 mph

Today
High -- | Low -- °F
--% Chance of Precip.
Yesterday
High -- | Low -- °F
Precip. -- in
Pressure 29.49 in
Visibility 10.0 miles
Clouds Few 3800 ft
Scattered Clouds 5000 ft
Overcast 7000 ft
Dew Point 61 °F
Humidity 84%
Rainfall 0.00 in
Snow Depth Not available.
6:08 AM 7:49 PM
Waning Crescent, 0% visible
METAR KSET 260954Z AUTO 25029G40KT 10SM FEW038 SCT050 OVC070 22/14 A2950 RMK AO2 PK WND 25040/0952 LTG DSNT W AND NW PRESRR SLP985 T02170139
Pressure 29.49 in
Visibility 10.0 miles
Clouds Few 3800 ft
Scattered Clouds 5000 ft
Overcast 7000 ft
Dew Point 61 °F
Humidity 84%
Rainfall 0.00 in
Snow Depth Not available.
6:08 AM 7:49 PM
Waning Crescent, 0% visible
METAR KSET 260954Z AUTO 25029G40KT 10SM FEW038 SCT050 OVC070 22/14 A2950 RMK AO2 PK WND 25040/0952 LTG DSNT W AND NW PRESRR SLP985 T02170139

Get Your Daily Forecast Email!

Thanks for signing up!

Be on the lookout for a verification email in your inbox.

You'll start receiving severe weather alerts in your inbox..

×

10-Day Weather Forecast

Almanac

Astronomy

Apr. 26, 2017 Rise Set
Actual Time
Civil Twilight
Nautical Twilight
Astronomical Twilight
Moon
Length of Visible Light
Length of Day
Tomorrow will be .
, % of the Moon is Illuminated

Today's Extremes

State Highs State Lows

Community

WunderPhotos

WunderBlog® & News

Nearby

Air Quality

  Air Quality AQ Index Pollutant
Not available.

Snow Depth

Station Depth Elevation

Earthquake Activity

City Distance Mag. Time & Date
Minimum magnitude displayed is 2.5.

Coastal Water Temperatures

Place Temperature

Stations

Nearby Weather Stations

Station Location Temp. Windchill Dew Point Humidity Wind Precip. Elev Updated Type
                   

Watches & Warnings

Flood Warning
Issued: 8:46 PM CDT Apr. 25, 2017 – National Weather Service

The Flood Warning continues for
the Illinois River at Hardin
* until Thursday afternoon.
* At 8:30 PM Tuesday the stage was 25.6 feet.
* Flood stage is 25.0 feet.
* Minor flooding is forecast.
* The river is forecast to continue falling to below flood stage by
early Wednesday afternoon.

                   Fld latest 7 a.M. Forecast
location stg obs stg 04/26 04/27 04/28 04/29 04/30

Illinois River
Hardin 25.0 25.65 25.2 24.8 24.6 24.5 24.3


Lat... Lon 3952 9064 3952 9052 3898 9048 3891 9054
      3903 9062